Terminal Aerodrome Forecast
Issued by NWS Tampa Bay Area, FL

Home | Current Version | Previous Version | Text Only | Print | Product List | Glossary On
Versions: 1 2 3 4 5 6 7 8 9 10 11 12 13 14 15
974
FTUS42 KTBW 261738
TAFFMY
TAF
KFMY 261738Z 2618/2718 09005KT P6SM VCTS SCT045CB
     FM262000 18007KT P6SM VCTS BKN045CB
     FM262200 23006KT P6SM VCTS BKN045CB
     FM270000 27004KT P6SM BKN045
     FM270300 VRB03KT P6SM BKN035=

USA.gov is the U.S. government's official web portal to all federal, state and local government web resources and services.